Ames, Kansas
Current Conditions -  °F | °C
As of 11:37 PM on Thursday 30 Oct 2014 (Local Time) from KCNK Reporting Station
Broken Clouds Broken Clouds  
Wind Chill: 37°   Ceiling: 2200
Heat Index: 44°   Visibility: 10mi
Dew Point: 37°   Wind: 14mph
Humidity: 76%   Direction: 360°N
Pressure: 30.36"   Gusts: 22mph
Location:  39.4716°N, 97.7305°W
Report Text: KCNK 310437Z AUTO 36012G19KT 10SM BKN022 07/03 A3036 RMK AO2 T00670028
Loading
Personal Weather Stations






























Interactive Weather Map New forecast layout! Learn more

10-Day Weather Forecast

Advertisements
Track Severe Weather on mobile